createdAt,value
2022-08-20T00:00:27.378Z,100.00
2022-08-20T00:03:02.706Z,100.00
2022-08-20T00:05:34.432Z,100.00
2022-08-20T00:08:03.954Z,100.00
2022-08-20T00:10:32.621Z,100.00
2022-08-20T00:12:59.204Z,100.00
2022-08-20T00:15:31.448Z,100.00
2022-08-20T00:17:58.941Z,100.00
2022-08-20T00:20:29.301Z,100.00
2022-08-20T00:22:56.950Z,100.00
2022-08-20T00:25:25.605Z,100.00
2022-08-20T00:27:52.177Z,100.00
2022-08-20T00:30:18.630Z,100.00
2022-08-20T00:32:51.920Z,100.00
2022-08-20T00:35:20.664Z,100.00
2022-08-20T00:37:47.462Z,100.00
2022-08-20T00:40:22.230Z,100.00
2022-08-20T00:42:55.296Z,100.00
2022-08-20T00:45:21.728Z,100.00
2022-08-20T00:47:51.325Z,100.00
2022-08-20T00:50:33.927Z,100.00
2022-08-20T00:53:02.804Z,100.00
2022-08-20T00:55:31.777Z,100.00
2022-08-20T00:58:03.167Z,100.00
2022-08-20T01:00:33.961Z,100.00
2022-08-20T01:03:01.604Z,100.00
2022-08-20T01:05:29.905Z,100.00
2022-08-20T01:07:57.033Z,100.00
2022-08-20T01:10:32.068Z,100.00
2022-08-20T01:12:59.892Z,100.00
2022-08-20T01:15:31.789Z,100.00
2022-08-20T01:18:00.908Z,100.00
2022-08-20T01:20:36.387Z,100.00
2022-08-20T01:23:36.005Z,100.00
2022-08-20T01:26:11.097Z,100.00
2022-08-20T01:28:37.936Z,100.00
2022-08-20T01:31:07.179Z,100.00
2022-08-20T01:33:34.048Z,100.00
2022-08-20T01:36:00.605Z,100.00
2022-08-20T01:38:29.450Z,100.00
2022-08-20T01:41:10.564Z,100.00
2022-08-20T01:43:37.821Z,100.00
2022-08-20T01:46:04.825Z,100.00
2022-08-20T01:48:31.430Z,100.00
2022-08-20T01:51:04.808Z,100.00
2022-08-20T01:53:35.989Z,100.00
2022-08-20T01:56:05.733Z,100.00
2022-08-20T01:58:34.584Z,100.00
2022-08-20T02:01:01.000Z,100.00
2022-08-20T02:03:27.618Z,100.00
2022-08-20T02:05:54.102Z,100.00
2022-08-20T02:08:21.686Z,100.00
2022-08-20T02:10:49.395Z,100.00
2022-08-20T02:13:16.415Z,100.00
2022-08-20T02:15:43.313Z,100.00
2022-08-20T02:18:13.373Z,100.00
2022-08-20T02:20:41.791Z,100.00
2022-08-20T02:23:08.392Z,100.00
2022-08-20T02:25:40.074Z,100.00
2022-08-20T02:28:11.343Z,100.00
2022-08-20T02:30:42.007Z,100.00
2022-08-20T02:33:11.231Z,100.00
2022-08-20T02:35:39.323Z,100.00
2022-08-20T02:38:06.111Z,100.00
2022-08-20T02:40:32.609Z,100.00
2022-08-20T02:43:00.292Z,100.00
2022-08-20T02:45:27.506Z,100.00
2022-08-20T02:47:55.615Z,100.00
2022-08-20T02:50:23.831Z,100.00
2022-08-20T02:52:51.666Z,100.00
2022-08-20T02:55:27.927Z,100.00
2022-08-20T02:58:00.028Z,100.00
2022-08-20T03:00:32.237Z,100.00
2022-08-20T03:03:05.617Z,100.00
2022-08-20T03:05:32.117Z,100.00
2022-08-20T03:07:58.607Z,100.00
2022-08-20T03:10:28.653Z,100.00
2022-08-20T03:12:55.269Z,100.00
2022-08-20T03:15:21.689Z,100.00
2022-08-20T03:17:48.384Z,100.00
2022-08-20T03:20:15.441Z,100.00
2022-08-20T03:22:42.411Z,100.00
2022-08-20T03:25:10.057Z,100.00
2022-08-20T03:27:36.850Z,100.00
2022-08-20T03:30:06.962Z,100.00
2022-08-20T03:32:33.417Z,100.00
2022-08-20T03:34:59.967Z,100.00
2022-08-20T03:37:30.941Z,100.00
2022-08-20T03:39:57.437Z,100.00
2022-08-20T03:42:23.866Z,100.00
2022-08-20T03:44:52.571Z,100.00
2022-08-20T03:47:25.564Z,100.00
2022-08-20T03:49:51.980Z,100.00
2022-08-20T03:52:18.382Z,100.00
2022-08-20T03:54:45.960Z,100.00
2022-08-20T03:57:15.355Z,100.00
2022-08-20T03:59:44.433Z,100.00
2022-08-20T04:02:11.773Z,100.00
2022-08-20T04:04:40.603Z,100.00
2022-08-20T04:07:20.488Z,100.00
2022-08-20T04:09:46.885Z,100.00
2022-08-20T04:12:13.453Z,100.00
2022-08-20T04:14:40.224Z,100.00
2022-08-20T04:17:09.936Z,100.00
2022-08-20T04:19:37.377Z,100.00
2022-08-20T04:22:03.944Z,100.00
2022-08-20T04:24:32.309Z,100.00
2022-08-20T04:27:00.270Z,100.00
2022-08-20T04:29:31.916Z,100.00
2022-08-20T04:32:00.565Z,100.00
2022-08-20T04:34:29.232Z,100.00
2022-08-20T04:36:55.988Z,100.00
2022-08-20T04:39:22.573Z,100.00
2022-08-20T04:41:49.176Z,100.00
2022-08-20T04:44:15.578Z,100.00
2022-08-20T04:46:43.624Z,100.00
2022-08-20T04:49:10.060Z,100.00
2022-08-20T04:51:37.053Z,100.00
2022-08-20T04:54:04.359Z,100.00
2022-08-20T04:56:38.624Z,100.00
2022-08-20T04:59:07.134Z,100.00
2022-08-20T05:01:33.655Z,100.00
2022-08-20T05:04:00.122Z,100.00
2022-08-20T05:06:30.634Z,100.00
2022-08-20T05:08:59.662Z,100.00
2022-08-20T05:11:33.992Z,100.00
2022-08-20T05:14:08.606Z,100.00
2022-08-20T05:16:37.857Z,100.00
2022-08-20T05:19:05.953Z,100.00
2022-08-20T05:21:32.400Z,100.00
2022-08-20T05:23:58.778Z,100.00
2022-08-20T05:26:26.350Z,100.00
2022-08-20T05:28:58.819Z,100.00
2022-08-20T05:31:31.734Z,100.00
2022-08-20T05:34:03.851Z,100.00
2022-08-20T05:36:30.374Z,100.00
2022-08-20T05:38:57.217Z,100.00
2022-08-20T05:41:29.043Z,100.00
2022-08-20T05:43:57.879Z,100.00
2022-08-20T05:46:24.293Z,100.00
2022-08-20T05:48:50.716Z,100.00
2022-08-20T05:51:17.548Z,100.00
2022-08-20T05:53:44.078Z,100.00
2022-08-20T05:56:13.324Z,100.00
2022-08-20T05:58:39.878Z,100.00
2022-08-20T06:01:06.404Z,100.00
2022-08-20T06:03:51.226Z,100.00
2022-08-20T06:06:38.779Z,100.00
2022-08-20T06:09:04.390Z,100.00
2022-08-20T06:11:33.861Z,100.00
2022-08-20T06:14:03.848Z,100.00
2022-08-20T06:16:30.762Z,100.00
2022-08-20T06:18:58.353Z,100.00
2022-08-20T06:21:24.993Z,100.00
2022-08-20T06:23:57.509Z,100.00
2022-08-20T06:26:30.318Z,100.00
2022-08-20T06:28:58.499Z,100.00
2022-08-20T06:31:24.986Z,100.00
2022-08-20T06:33:51.417Z,96.47
2022-08-20T06:36:18.840Z,93.04
2022-08-20T06:38:46.373Z,97.19
2022-08-20T06:41:13.163Z,92.11
2022-08-20T06:43:39.657Z,90.31
2022-08-20T06:46:06.830Z,84.79
2022-08-20T06:48:34.125Z,86.37
2022-08-20T06:51:00.684Z,84.83
2022-08-20T06:53:27.137Z,87.77
2022-08-20T06:55:56.863Z,83.50
2022-08-20T06:58:37.468Z,82.54
2022-08-20T07:01:10.796Z,82.09
2022-08-20T07:03:38.844Z,81.16
2022-08-20T07:06:06.422Z,76.36
2022-08-20T07:08:32.933Z,77.94
2022-08-20T07:10:59.668Z,76.86
2022-08-20T07:13:26.192Z,77.61
2022-08-20T07:15:54.525Z,75.34
2022-08-20T07:18:27.879Z,75.51
2022-08-20T07:20:56.920Z,73.45
2022-08-20T07:23:24.261Z,72.77
2022-08-20T07:25:50.996Z,70.59
2022-08-20T07:28:20.851Z,68.61
2022-08-20T07:31:13.495Z,69.72
2022-08-20T07:33:42.464Z,59.24
2022-08-20T07:36:11.196Z,64.96
2022-08-20T07:38:37.891Z,65.61
2022-08-20T07:41:13.085Z,66.37
2022-08-20T07:43:40.600Z,64.87
2022-08-20T07:46:09.175Z,65.14
2022-08-20T07:48:46.883Z,60.84
2022-08-20T07:51:17.048Z,62.35
2022-08-20T07:53:44.480Z,62.44
2022-08-20T07:56:13.977Z,59.11
2022-08-20T07:58:47.423Z,61.10
2022-08-20T08:01:13.953Z,60.58
2022-08-20T08:03:49.255Z,59.46
2022-08-20T08:06:28.654Z,54.16
2022-08-20T08:08:59.441Z,54.91
2022-08-20T08:11:26.016Z,50.48
2022-08-20T08:13:52.551Z,51.74
2022-08-20T08:16:20.106Z,54.50
2022-08-20T08:18:50.347Z,53.67
2022-08-20T08:21:18.979Z,51.46
2022-08-20T08:23:45.697Z,52.27
2022-08-20T08:26:16.148Z,52.35
2022-08-20T08:28:45.365Z,49.99
2022-08-20T08:31:12.495Z,50.93
2022-08-20T08:33:40.601Z,51.43
2022-08-20T08:36:16.364Z,49.52
2022-08-20T08:38:45.311Z,48.42
2022-08-20T08:41:16.226Z,50.84
2022-08-20T08:43:46.790Z,50.66
2022-08-20T08:46:17.887Z,49.76
2022-08-20T08:48:48.250Z,50.04
2022-08-20T08:51:26.618Z,51.58
2022-08-20T08:53:54.766Z,52.19
2022-08-20T08:56:28.389Z,50.17
2022-08-20T08:59:00.472Z,48.73
2022-08-20T09:01:55.163Z,50.37
2022-08-20T09:04:16.914Z,52.04
2022-08-20T09:06:52.308Z,51.79
2022-08-20T09:09:27.959Z,51.21
2022-08-20T09:11:57.338Z,50.70
2022-08-20T09:14:26.710Z,50.50
2022-08-20T09:16:53.684Z,49.77
2022-08-20T09:19:21.062Z,50.96
2022-08-20T09:21:47.441Z,52.11
2022-08-20T09:24:13.894Z,52.88
2022-08-20T09:26:40.391Z,52.73
2022-08-20T09:29:06.952Z,54.13
2022-08-20T09:31:33.340Z,54.64
2022-08-20T09:33:59.803Z,55.76
2022-08-20T09:36:29.210Z,54.99
2022-08-20T09:38:58.997Z,52.09
2022-08-20T09:41:25.371Z,53.74
2022-08-20T09:43:51.748Z,54.12
2022-08-20T09:46:18.267Z,54.92
2022-08-20T09:48:44.765Z,56.00
2022-08-20T09:51:11.302Z,55.89
2022-08-20T09:53:37.786Z,54.02
2022-08-20T09:56:04.306Z,53.74
2022-08-20T09:58:45.372Z,52.38
2022-08-20T10:01:15.090Z,49.12
2022-08-20T10:03:47.900Z,51.33
2022-08-20T10:06:16.537Z,52.95
2022-08-20T10:08:43.801Z,52.01
2022-08-20T10:11:10.289Z,50.93
2022-08-20T10:13:36.728Z,48.55
2022-08-20T10:16:03.521Z,50.55
2022-08-20T10:18:29.941Z,49.15
2022-08-20T10:20:56.532Z,48.81
2022-08-20T10:23:22.928Z,49.45
2022-08-20T10:25:49.366Z,49.82
2022-08-20T10:28:15.775Z,49.03
2022-08-20T10:30:42.202Z,49.17
2022-08-20T10:33:08.614Z,49.64
2022-08-20T10:35:35.198Z,51.30
2022-08-20T10:38:01.791Z,50.26
2022-08-20T10:40:28.289Z,49.73
2022-08-20T10:42:54.704Z,49.30
2022-08-20T10:45:21.577Z,48.86
2022-08-20T10:47:48.009Z,48.19
2022-08-20T10:50:16.649Z,48.90
2022-08-20T10:52:43.097Z,49.50
2022-08-20T10:55:09.914Z,49.71
2022-08-20T10:57:38.880Z,49.35
2022-08-20T11:00:07.964Z,50.84
2022-08-20T11:02:34.432Z,49.96
2022-08-20T11:05:00.852Z,50.14
2022-08-20T11:07:55.328Z,50.63
2022-08-20T11:10:19.484Z,48.60
2022-08-20T11:12:46.621Z,49.97
2022-08-20T11:15:14.718Z,50.30
2022-08-20T11:17:43.152Z,51.43
2022-08-20T11:20:11.801Z,50.18
2022-08-20T11:22:38.304Z,50.05
2022-08-20T11:25:06.511Z,49.50
2022-08-20T11:27:41.689Z,50.88
2022-08-20T11:30:11.799Z,49.19
2022-08-20T11:32:38.446Z,49.93
2022-08-20T11:35:24.423Z,50.82
2022-08-20T11:37:53.904Z,51.50
2022-08-20T11:40:20.815Z,52.31
2022-08-20T11:43:12.690Z,52.19
2022-08-20T11:45:37.515Z,52.79
2022-08-20T11:48:04.708Z,51.36
2022-08-20T11:50:31.179Z,50.21
2022-08-20T11:52:57.808Z,49.54
2022-08-20T11:55:30.076Z,51.43
2022-08-20T11:57:57.333Z,51.94
2022-08-20T12:00:32.609Z,51.18
2022-08-20T12:03:00.326Z,51.35
2022-08-20T12:05:27.389Z,54.21
2022-08-20T12:07:53.881Z,55.49
2022-08-20T12:10:20.346Z,55.67
2022-08-20T12:12:46.748Z,55.93
2022-08-20T12:15:13.145Z,51.67
2022-08-20T12:17:39.832Z,52.88
2022-08-20T12:20:13.479Z,54.49
2022-08-20T12:22:40.321Z,57.17
2022-08-20T12:25:08.433Z,53.94
2022-08-20T12:27:36.153Z,53.31
2022-08-20T12:30:06.801Z,53.33
2022-08-20T12:32:34.012Z,53.45
2022-08-20T12:35:00.585Z,51.06
2022-08-20T12:37:29.844Z,52.90
2022-08-20T12:39:58.522Z,50.48
2022-08-20T12:42:26.275Z,48.26
2022-08-20T12:44:53.575Z,52.85
2022-08-20T12:47:21.456Z,49.94
2022-08-20T12:49:57.334Z,47.66
2022-08-20T12:52:25.496Z,48.54
2022-08-20T12:54:52.540Z,52.07
2022-08-20T12:57:31.286Z,52.44
2022-08-20T13:00:00.560Z,52.78
2022-08-20T13:02:27.983Z,54.03
2022-08-20T13:04:54.460Z,55.56
2022-08-20T13:07:22.128Z,55.33
2022-08-20T13:09:48.890Z,51.08
2022-08-20T13:12:15.369Z,51.96
2022-08-20T13:14:42.466Z,53.25
2022-08-20T13:17:09.899Z,51.74
2022-08-20T13:19:38.357Z,48.87
2022-08-20T13:22:05.453Z,46.40
2022-08-20T13:24:32.104Z,46.07
2022-08-20T13:27:10.994Z,51.18
2022-08-20T13:29:38.328Z,58.44
2022-08-20T13:32:05.553Z,58.23
2022-08-20T13:34:32.084Z,59.38
2022-08-20T13:36:58.655Z,61.74
2022-08-20T13:39:25.083Z,65.04
2022-08-20T13:41:51.580Z,64.90
2022-08-20T13:44:18.450Z,60.91
2022-08-20T13:46:45.104Z,57.24
2022-08-20T13:49:11.535Z,55.99
2022-08-20T13:51:38.028Z,53.46
2022-08-20T13:54:04.533Z,50.87
2022-08-20T13:56:31.014Z,50.76
2022-08-20T13:58:58.490Z,49.57
2022-08-20T14:01:24.962Z,48.14
2022-08-20T14:03:51.426Z,47.49
2022-08-20T14:06:18.291Z,45.77
2022-08-20T14:08:44.707Z,42.55
2022-08-20T14:11:12.805Z,42.95
2022-08-20T14:13:44.212Z,42.18
2022-08-20T14:16:21.322Z,38.92
2022-08-20T14:18:55.499Z,39.43
2022-08-20T14:21:21.975Z,39.85
2022-08-20T14:23:48.378Z,37.84
2022-08-20T14:26:14.785Z,39.85
2022-08-20T14:28:41.815Z,38.86
2022-08-20T14:31:08.209Z,39.70
2022-08-20T14:33:36.123Z,38.63
2022-08-20T14:36:04.028Z,38.75
2022-08-20T14:38:30.448Z,39.81
2022-08-20T14:40:56.880Z,39.09
2022-08-20T14:43:23.291Z,37.35
2022-08-20T14:45:49.677Z,38.53
2022-08-20T14:48:16.142Z,39.54
2022-08-20T14:50:42.749Z,39.49
2022-08-20T14:53:09.312Z,38.89
2022-08-20T14:55:37.503Z,40.46
2022-08-20T14:58:09.042Z,40.49
2022-08-20T15:00:35.610Z,39.77
2022-08-20T15:03:02.125Z,40.34
2022-08-20T15:05:29.723Z,40.21
2022-08-20T15:07:57.577Z,40.15
2022-08-20T15:10:28.705Z,40.46
2022-08-20T15:12:55.381Z,39.73
2022-08-20T15:15:23.586Z,39.13
2022-08-20T15:17:53.693Z,38.84
2022-08-20T15:20:23.173Z,39.68
2022-08-20T15:22:49.967Z,40.60
2022-08-20T15:25:20.321Z,42.48
2022-08-20T15:27:47.394Z,39.37
2022-08-20T15:30:18.562Z,39.03
2022-08-20T15:32:45.378Z,40.11
2022-08-20T15:35:13.187Z,40.25
2022-08-20T15:37:45.145Z,40.61
2022-08-20T15:40:16.125Z,39.94
2022-08-20T15:42:43.276Z,39.03
2022-08-20T15:45:22.047Z,37.94
2022-08-20T15:48:19.855Z,38.13
2022-08-20T15:51:20.968Z,38.23
2022-08-20T15:53:50.323Z,38.53
2022-08-20T15:56:37.388Z,37.80
2022-08-20T15:59:12.592Z,36.97
2022-08-20T16:02:00.686Z,37.84
2022-08-20T16:04:45.875Z,37.37
2022-08-20T16:07:32.921Z,35.32
2022-08-20T16:10:27.324Z,39.58
2022-08-20T16:12:57.742Z,37.35
2022-08-20T16:15:29.377Z,37.18
2022-08-20T16:18:08.205Z,36.44
2022-08-20T16:20:48.037Z,36.94
2022-08-20T16:23:27.863Z,35.93
2022-08-20T16:26:28.361Z,35.47
2022-08-20T16:29:22.516Z,34.67
2022-08-20T16:31:56.432Z,37.36
2022-08-20T16:34:33.485Z,34.75
2022-08-20T16:37:43.593Z,35.11
2022-08-20T16:40:24.759Z,34.72
2022-08-20T16:42:53.064Z,34.16
2022-08-20T16:45:25.799Z,34.20
2022-08-20T16:47:55.531Z,34.92
2022-08-20T16:50:25.790Z,35.10
2022-08-20T16:52:53.164Z,33.90
2022-08-20T16:55:22.916Z,34.10
2022-08-20T16:57:51.526Z,35.08
2022-08-20T17:00:30.438Z,34.14
2022-08-20T17:03:02.505Z,35.70
2022-08-20T17:05:44.886Z,35.55
2022-08-20T17:08:20.452Z,35.79
2022-08-20T17:10:53.621Z,37.49
2022-08-20T17:13:28.203Z,35.87
2022-08-20T17:16:01.529Z,37.20
2022-08-20T17:18:37.501Z,37.20
2022-08-20T17:21:12.448Z,38.83
2022-08-20T17:23:55.624Z,37.19
2022-08-20T17:26:36.068Z,41.62
2022-08-20T17:29:18.319Z,39.73
2022-08-20T17:31:51.509Z,40.50
2022-08-20T17:34:22.196Z,39.83
2022-08-20T17:36:54.291Z,39.08
2022-08-20T17:39:22.923Z,40.18
2022-08-20T17:41:54.356Z,41.90
2022-08-20T17:44:30.987Z,50.40
2022-08-20T17:47:00.024Z,56.24
2022-08-20T17:49:35.221Z,59.58
2022-08-20T17:52:05.801Z,61.05
2022-08-20T17:54:39.184Z,64.71
2022-08-20T17:57:15.363Z,65.54
2022-08-20T18:00:00.738Z,63.80
2022-08-20T18:02:29.671Z,61.61
2022-08-20T18:04:56.665Z,61.29
2022-08-20T18:08:08.512Z,65.58
2022-08-20T18:10:55.308Z,69.87
2022-08-20T18:13:49.513Z,67.52
2022-08-20T18:16:28.776Z,66.90
2022-08-20T18:19:14.963Z,69.87
2022-08-20T18:21:56.079Z,63.02
2022-08-20T18:24:58.367Z,70.83
2022-08-20T18:27:28.076Z,68.77
2022-08-20T18:30:00.418Z,72.72
2022-08-20T18:32:34.459Z,67.20
2022-08-20T18:35:20.861Z,66.32
2022-08-20T18:37:48.229Z,70.97
2022-08-20T18:40:28.824Z,75.06
2022-08-20T18:42:58.587Z,71.98
2022-08-20T18:45:34.681Z,68.65
2022-08-20T18:48:03.161Z,68.69
2022-08-20T18:50:38.539Z,78.55
2022-08-20T18:53:34.589Z,71.12
2022-08-20T18:56:11.950Z,76.89
2022-08-20T18:59:00.737Z,78.37
2022-08-20T19:01:27.578Z,80.60
2022-08-20T19:03:56.407Z,78.58
2022-08-20T19:06:47.548Z,85.92
2022-08-20T19:09:36.042Z,79.16
2022-08-20T19:12:16.754Z,79.16
2022-08-20T19:15:01.331Z,75.59
2022-08-20T19:17:42.489Z,78.56
2022-08-20T19:20:16.840Z,86.08
2022-08-20T19:22:44.573Z,87.59
2022-08-20T19:25:27.189Z,76.79
2022-08-20T19:27:54.151Z,87.81
2022-08-20T19:30:47.357Z,93.94
2022-08-20T19:33:13.865Z,88.20
2022-08-20T19:35:40.756Z,84.02
2022-08-20T19:38:15.010Z,85.36
2022-08-20T19:40:46.033Z,91.58
2022-08-20T19:43:17.673Z,98.28
2022-08-20T19:45:49.030Z,84.31
2022-08-20T19:48:37.503Z,89.66
2022-08-20T19:51:24.260Z,83.76
2022-08-20T19:53:50.869Z,79.89
2022-08-20T19:56:22.963Z,83.65
2022-08-20T19:59:05.644Z,90.34
2022-08-20T20:01:33.591Z,82.40
2022-08-20T20:04:06.587Z,78.34
2022-08-20T20:06:41.628Z,77.61
2022-08-20T20:09:17.344Z,76.35
2022-08-20T20:11:51.688Z,79.78
2022-08-20T20:14:22.275Z,100.00
2022-08-20T20:16:51.314Z,91.81
2022-08-20T20:19:27.557Z,100.00
2022-08-20T20:22:28.682Z,100.00
2022-08-20T20:25:06.326Z,100.00
2022-08-20T20:27:36.382Z,98.79
2022-08-20T20:30:10.774Z,79.81
2022-08-20T20:32:40.049Z,95.34
2022-08-20T20:35:06.764Z,86.67
2022-08-20T20:37:50.303Z,86.88
2022-08-20T20:40:28.571Z,88.81
2022-08-20T20:43:07.249Z,92.49
2022-08-20T20:46:16.936Z,100.00
2022-08-20T20:48:46.686Z,90.04
2022-08-20T20:51:16.744Z,92.01
2022-08-20T20:53:51.059Z,96.07
2022-08-20T20:56:36.211Z,100.00
2022-08-20T20:59:06.827Z,100.00
2022-08-20T21:01:48.253Z,100.00
2022-08-20T21:04:20.453Z,99.14
2022-08-20T21:06:47.440Z,98.98
2022-08-20T21:09:14.292Z,95.57
2022-08-20T21:11:40.728Z,94.94
2022-08-20T21:14:07.127Z,92.85
2022-08-20T21:16:33.803Z,91.57
2022-08-20T21:19:01.246Z,88.58
2022-08-20T21:21:27.645Z,100.00
2022-08-20T21:23:54.148Z,100.00
2022-08-20T21:26:20.604Z,100.00
2022-08-20T21:28:47.025Z,100.00
2022-08-20T21:31:13.443Z,100.00
2022-08-20T21:33:39.910Z,100.00
2022-08-20T21:36:06.546Z,100.00
2022-08-20T21:38:33.057Z,100.00
2022-08-20T21:40:59.682Z,100.00
2022-08-20T21:43:26.831Z,100.00
2022-08-20T21:45:53.208Z,100.00
2022-08-20T21:48:20.253Z,100.00
2022-08-20T21:50:46.762Z,100.00
2022-08-20T21:53:13.479Z,100.00
2022-08-20T21:55:40.740Z,100.00
2022-08-20T21:58:08.434Z,100.00
2022-08-20T22:00:47.020Z,100.00
2022-08-20T22:03:15.116Z,100.00
2022-08-20T22:05:42.038Z,100.00
2022-08-20T22:08:08.593Z,100.00
2022-08-20T22:10:35.035Z,100.00
2022-08-20T22:13:01.719Z,100.00
2022-08-20T22:15:28.789Z,100.00
2022-08-20T22:17:55.174Z,100.00
2022-08-20T22:20:23.149Z,100.00
2022-08-20T22:22:49.595Z,100.00
2022-08-20T22:25:16.358Z,100.00
2022-08-20T22:27:42.824Z,100.00
2022-08-20T22:30:10.143Z,100.00
2022-08-20T22:32:52.080Z,100.00
2022-08-20T22:35:23.399Z,100.00
2022-08-20T22:37:49.826Z,100.00
2022-08-20T22:40:16.270Z,100.00
2022-08-20T22:42:42.671Z,100.00
2022-08-20T22:45:11.549Z,100.00
2022-08-20T22:47:42.164Z,100.00
2022-08-20T22:50:10.799Z,100.00
2022-08-20T22:52:39.226Z,100.00
2022-08-20T22:55:07.126Z,100.00
2022-08-20T22:57:36.090Z,100.00
2022-08-20T23:00:04.321Z,100.00
2022-08-20T23:02:30.719Z,100.00
2022-08-20T23:04:57.191Z,100.00
2022-08-20T23:07:23.727Z,100.00
2022-08-20T23:09:50.227Z,100.00
2022-08-20T23:12:16.615Z,100.00
2022-08-20T23:14:43.033Z,100.00
2022-08-20T23:17:17.507Z,100.00
2022-08-20T23:19:44.404Z,100.00
2022-08-20T23:22:11.192Z,100.00
2022-08-20T23:24:37.733Z,100.00
2022-08-20T23:27:05.925Z,100.00
2022-08-20T23:29:32.716Z,100.00
2022-08-20T23:31:59.931Z,100.00
2022-08-20T23:34:26.961Z,100.00
2022-08-20T23:36:55.548Z,100.00
2022-08-20T23:39:22.236Z,100.00
2022-08-20T23:41:48.911Z,100.00
2022-08-20T23:44:25.957Z,100.00
2022-08-20T23:46:55.488Z,100.00
2022-08-20T23:49:21.978Z,100.00
2022-08-20T23:51:48.439Z,100.00
2022-08-20T23:54:14.968Z,100.00
2022-08-20T23:56:41.468Z,100.00
2022-08-20T23:59:07.968Z,100.00
